createdAt,value
2023-08-11T00:01:19.531Z,16.34
2023-08-11T00:03:58.187Z,16.30
2023-08-11T00:06:37.285Z,16.30
2023-08-11T00:09:16.969Z,16.25
2023-08-11T00:11:56.497Z,16.20
2023-08-11T00:14:35.938Z,16.09
2023-08-11T00:17:16.281Z,16.03
2023-08-11T00:19:54.711Z,15.93
2023-08-11T00:22:33.961Z,15.85
2023-08-11T00:25:15.361Z,15.79
2023-08-11T00:27:54.171Z,15.67
2023-08-11T00:30:32.857Z,15.59
2023-08-11T00:33:03.383Z,15.61
2023-08-11T00:35:35.771Z,15.65
2023-08-11T00:38:15.070Z,15.61
2023-08-11T00:40:54.385Z,15.61
2023-08-11T00:43:34.808Z,15.67
2023-08-11T00:46:16.404Z,15.63
2023-08-11T00:48:55.300Z,15.46
2023-08-11T00:51:35.072Z,15.32
2023-08-11T00:54:16.372Z,15.26
2023-08-11T00:56:55.948Z,15.27
2023-08-11T00:59:34.837Z,15.26
2023-08-11T01:02:14.737Z,15.28
2023-08-11T01:04:54.002Z,15.33
2023-08-11T01:07:45.009Z,15.24
2023-08-11T01:10:48.187Z,15.12
2023-08-11T01:13:31.865Z,15.04
2023-08-11T01:16:12.716Z,14.98
2023-08-11T01:18:52.070Z,14.92
2023-08-11T01:21:37.080Z,14.89
2023-08-11T01:24:16.768Z,14.85
2023-08-11T01:26:55.878Z,14.88
2023-08-11T01:29:35.853Z,14.77
2023-08-11T01:32:14.004Z,14.72
2023-08-11T01:34:45.480Z,14.70
2023-08-11T01:37:25.136Z,14.65
2023-08-11T01:40:14.567Z,14.60
2023-08-11T01:42:56.368Z,14.53
2023-08-11T01:45:34.638Z,14.49
2023-08-11T01:48:14.604Z,14.45
2023-08-11T01:50:53.980Z,14.42
2023-08-11T01:53:34.620Z,14.44
2023-08-11T01:56:15.420Z,14.48
2023-08-11T01:58:52.832Z,14.45
2023-08-11T02:01:23.258Z,14.44
2023-08-11T02:04:04.178Z,14.48
2023-08-11T02:06:47.578Z,14.54
2023-08-11T02:09:27.312Z,14.58
2023-08-11T02:12:06.785Z,14.54
2023-08-11T02:14:45.573Z,14.48
2023-08-11T02:17:25.553Z,14.39
2023-08-11T02:20:44.651Z,14.40
2023-08-11T02:23:21.852Z,14.32
2023-08-11T02:26:02.509Z,14.21
2023-08-11T02:28:42.510Z,14.15
2023-08-11T02:31:23.023Z,14.18
2023-08-11T02:34:01.988Z,14.12
2023-08-11T02:36:41.090Z,14.11
2023-08-11T02:39:20.702Z,14.15
2023-08-11T02:42:00.904Z,14.18
2023-08-11T02:44:41.106Z,14.21
2023-08-11T02:47:20.912Z,14.22
2023-08-11T02:50:00.651Z,14.28
2023-08-11T02:52:40.583Z,14.25
2023-08-11T02:55:22.875Z,14.24
2023-08-11T02:58:02.901Z,14.27
2023-08-11T03:00:42.651Z,14.29
2023-08-11T03:03:23.326Z,14.21
2023-08-11T03:05:59.906Z,14.20
2023-08-11T03:08:39.268Z,14.16
2023-08-11T03:11:17.778Z,14.19
2023-08-11T03:13:57.532Z,14.17
2023-08-11T03:16:28.413Z,14.18
2023-08-11T03:18:58.698Z,14.21
2023-08-11T03:21:38.152Z,14.19
2023-08-11T03:24:17.482Z,14.12
2023-08-11T03:26:56.252Z,14.06
2023-08-11T03:29:36.113Z,14.11
2023-08-11T03:32:09.344Z,14.17
2023-08-11T03:34:40.516Z,14.19
2023-08-11T03:37:20.667Z,14.17
2023-08-11T03:39:59.604Z,14.10
2023-08-11T03:42:30.005Z,14.11
2023-08-11T03:45:00.513Z,14.16
2023-08-11T03:47:38.144Z,14.14
2023-08-11T03:50:17.862Z,14.11
2023-08-11T03:52:57.743Z,14.11
2023-08-11T03:55:37.245Z,14.21
2023-08-11T03:58:17.215Z,14.26
2023-08-11T04:00:56.556Z,14.26
2023-08-11T04:03:36.050Z,14.17
2023-08-11T04:06:15.376Z,14.13
2023-08-11T04:08:54.601Z,13.98
2023-08-11T04:11:34.844Z,13.93
2023-08-11T04:14:14.587Z,13.96
2023-08-11T04:16:53.758Z,13.98
2023-08-11T04:19:25.135Z,14.00
2023-08-11T04:22:07.017Z,14.10
2023-08-11T04:24:46.844Z,14.19
2023-08-11T04:27:25.719Z,14.23
2023-08-11T04:29:56.115Z,14.28
2023-08-11T04:32:36.551Z,14.37
2023-08-11T04:35:16.069Z,14.48
2023-08-11T04:37:55.363Z,14.62
2023-08-11T04:40:34.658Z,14.69
2023-08-11T04:43:09.192Z,14.73
2023-08-11T04:45:41.451Z,14.87
2023-08-11T04:48:22.870Z,14.93
2023-08-11T04:51:00.609Z,15.05
2023-08-11T04:53:39.864Z,15.21
2023-08-11T04:56:19.596Z,15.32
2023-08-11T04:58:58.977Z,15.44
2023-08-11T05:01:29.577Z,15.59
2023-08-11T05:04:10.143Z,15.65
2023-08-11T05:06:49.403Z,15.77
2023-08-11T05:09:29.034Z,15.87
2023-08-11T05:12:08.925Z,15.97
2023-08-11T05:14:49.064Z,16.10
2023-08-11T05:17:19.478Z,16.29
2023-08-11T05:20:00.818Z,16.47
2023-08-11T05:22:41.817Z,16.81
2023-08-11T05:25:21.103Z,17.24
2023-08-11T05:28:00.604Z,17.68
2023-08-11T05:30:39.341Z,18.04
2023-08-11T05:33:10.419Z,18.69
2023-08-11T05:35:42.195Z,19.84
2023-08-11T05:38:22.249Z,20.55
2023-08-11T05:41:01.329Z,21.23
2023-08-11T05:43:40.817Z,22.22
2023-08-11T05:46:19.593Z,22.73
2023-08-11T05:48:59.953Z,23.44
2023-08-11T05:51:37.553Z,23.96
2023-08-11T05:54:16.783Z,24.11
2023-08-11T05:56:57.068Z,24.22
2023-08-11T05:59:37.340Z,24.39
2023-08-11T06:02:17.552Z,24.61
2023-08-11T06:04:57.658Z,25.32
2023-08-11T06:07:34.350Z,25.83
2023-08-11T06:10:15.742Z,26.24
2023-08-11T06:12:56.973Z,26.80
2023-08-11T06:15:27.564Z,27.06
2023-08-11T06:18:08.119Z,27.25
2023-08-11T06:20:48.870Z,27.54
2023-08-11T06:23:29.168Z,27.66
2023-08-11T06:26:10.134Z,27.81
2023-08-11T06:28:50.414Z,27.54
2023-08-11T06:31:30.713Z,27.33
2023-08-11T06:34:12.434Z,27.43
2023-08-11T06:36:53.372Z,27.71
2023-08-11T06:39:32.947Z,27.71
2023-08-11T06:42:13.981Z,27.21
2023-08-11T06:44:54.010Z,27.10
2023-08-11T06:47:32.865Z,27.82
2023-08-11T06:50:13.238Z,27.69
2023-08-11T06:52:51.932Z,27.55
2023-08-11T06:55:31.442Z,27.60
2023-08-11T06:58:13.310Z,27.99
2023-08-11T07:00:53.403Z,28.08
2023-08-11T07:03:35.130Z,28.05
2023-08-11T07:06:15.725Z,27.38
2023-08-11T07:08:55.221Z,27.56
2023-08-11T07:11:34.517Z,27.86
2023-08-11T07:14:06.652Z,28.34
2023-08-11T07:16:37.530Z,28.14
2023-08-11T07:19:08.348Z,28.20
2023-08-11T07:21:44.955Z,28.17
2023-08-11T07:24:24.827Z,27.88
2023-08-11T07:27:01.631Z,27.98
2023-08-11T07:29:42.208Z,28.31
2023-08-11T07:32:21.589Z,28.64
2023-08-11T07:35:01.218Z,28.76
2023-08-11T07:37:33.561Z,28.52
2023-08-11T07:40:15.008Z,28.58
2023-08-11T07:42:54.600Z,28.91
2023-08-11T07:45:35.402Z,28.64
2023-08-11T07:48:06.277Z,28.62
2023-08-11T07:50:45.610Z,29.01
2023-08-11T07:53:16.812Z,29.15
2023-08-11T07:55:49.826Z,29.25
2023-08-11T07:58:26.217Z,29.34
2023-08-11T08:01:06.421Z,29.51
2023-08-11T08:03:46.054Z,29.29
2023-08-11T08:06:26.281Z,29.25
2023-08-11T08:09:11.816Z,29.44
2023-08-11T08:11:47.865Z,29.41
2023-08-11T08:14:26.362Z,29.06
2023-08-11T08:17:05.656Z,29.42
2023-08-11T08:19:46.098Z,29.69
2023-08-11T08:22:25.021Z,29.42
2023-08-11T08:25:08.202Z,29.44
2023-08-11T08:27:46.904Z,29.81
2023-08-11T08:30:26.588Z,29.80
2023-08-11T08:33:07.811Z,30.03
2023-08-11T08:35:47.312Z,30.06
2023-08-11T08:38:24.692Z,29.91
2023-08-11T08:41:03.976Z,30.14
2023-08-11T08:43:43.411Z,30.35
2023-08-11T08:46:27.848Z,30.38
2023-08-11T08:49:31.989Z,30.70
2023-08-11T08:52:17.774Z,30.75
2023-08-11T08:55:00.189Z,30.91
2023-08-11T08:57:40.529Z,30.93
2023-08-11T09:00:21.461Z,31.15
2023-08-11T09:03:02.826Z,31.36
2023-08-11T09:05:42.475Z,31.58
2023-08-11T09:08:23.529Z,31.32
2023-08-11T09:11:03.300Z,31.45
2023-08-11T09:13:46.563Z,31.44
2023-08-11T09:16:26.950Z,31.19
2023-08-11T09:19:06.345Z,30.86
2023-08-11T09:21:48.654Z,30.55
2023-08-11T09:24:30.419Z,30.89
2023-08-11T09:27:11.421Z,30.35
2023-08-11T09:29:48.922Z,30.16
2023-08-11T09:32:29.231Z,30.07
2023-08-11T09:35:14.113Z,29.55
2023-08-11T09:37:49.499Z,29.02
2023-08-11T09:40:28.987Z,29.35
2023-08-11T09:43:09.045Z,29.73
2023-08-11T09:45:49.265Z,30.28
2023-08-11T09:48:29.697Z,30.62
2023-08-11T09:51:12.360Z,30.82
2023-08-11T09:53:49.999Z,30.42
2023-08-11T09:56:30.819Z,30.72
2023-08-11T09:59:12.739Z,30.91
2023-08-11T10:01:53.663Z,30.67
2023-08-11T10:04:42.358Z,29.85
2023-08-11T10:07:20.519Z,29.30
2023-08-11T10:09:53.084Z,29.04
2023-08-11T10:12:30.132Z,29.06
2023-08-11T10:15:11.958Z,29.15
2023-08-11T10:17:50.291Z,28.63
2023-08-11T10:20:29.631Z,28.19
2023-08-11T10:23:10.561Z,28.33
2023-08-11T10:25:50.603Z,28.75
2023-08-11T10:28:28.297Z,29.06
2023-08-11T10:31:12.894Z,29.20
2023-08-11T10:33:55.612Z,29.41
2023-08-11T10:36:30.982Z,29.47
2023-08-11T10:39:11.399Z,29.22
2023-08-11T10:41:51.465Z,28.60
2023-08-11T10:44:31.004Z,28.35
2023-08-11T10:47:12.406Z,28.33
2023-08-11T10:49:57.097Z,28.65
2023-08-11T10:52:32.536Z,28.96
2023-08-11T10:55:11.859Z,29.24
2023-08-11T10:58:21.212Z,29.28
2023-08-11T11:01:01.433Z,29.46
2023-08-11T11:03:44.372Z,29.31
2023-08-11T11:06:24.349Z,29.35
2023-08-11T11:09:04.978Z,29.43
2023-08-11T11:11:45.239Z,29.66
2023-08-11T11:14:30.421Z,29.59
2023-08-11T11:17:11.897Z,29.55
2023-08-11T11:19:51.321Z,29.22
2023-08-11T11:22:31.866Z,29.03
2023-08-11T11:25:13.034Z,28.71
2023-08-11T11:27:52.620Z,28.88
2023-08-11T11:30:32.727Z,28.60
2023-08-11T11:33:15.985Z,28.59
2023-08-11T11:35:53.889Z,28.66
2023-08-11T11:38:33.053Z,28.77
2023-08-11T11:41:15.383Z,28.72
2023-08-11T11:43:53.444Z,28.56
2023-08-11T11:46:33.707Z,28.27
2023-08-11T11:49:28.085Z,28.09
2023-08-11T11:52:14.620Z,27.97
2023-08-11T11:54:45.712Z,28.16
2023-08-11T11:57:22.067Z,28.30
2023-08-11T11:59:56.110Z,28.32
2023-08-11T12:02:34.068Z,28.40
2023-08-11T12:05:14.558Z,28.47
2023-08-11T12:07:53.479Z,28.46
2023-08-11T12:10:35.790Z,28.39
2023-08-11T12:13:06.305Z,28.17
2023-08-11T12:15:45.269Z,28.20
2023-08-11T12:18:26.100Z,28.03
2023-08-11T12:21:06.354Z,28.00
2023-08-11T12:23:46.586Z,28.08
2023-08-11T12:26:26.944Z,28.16
2023-08-11T12:29:07.025Z,28.32
2023-08-11T12:31:46.844Z,28.25
2023-08-11T12:34:27.428Z,27.91
2023-08-11T12:37:07.170Z,27.97
2023-08-11T12:39:46.179Z,28.09
2023-08-11T12:42:25.815Z,27.99
2023-08-11T12:45:10.047Z,27.99
2023-08-11T12:47:40.625Z,28.02
2023-08-11T12:50:19.998Z,28.04
2023-08-11T12:53:00.291Z,27.89
2023-08-11T12:55:40.556Z,27.84
2023-08-11T12:58:20.412Z,27.80
2023-08-11T13:01:00.770Z,27.66
2023-08-11T13:03:42.524Z,27.58
2023-08-11T13:06:26.771Z,27.64
2023-08-11T13:09:09.312Z,27.59
2023-08-11T13:11:49.213Z,27.38
2023-08-11T13:14:30.006Z,27.46
2023-08-11T13:17:13.399Z,27.34
2023-08-11T13:19:53.539Z,27.20
2023-08-11T13:22:33.552Z,27.29
2023-08-11T13:25:06.514Z,27.49
2023-08-11T13:27:45.312Z,27.45
2023-08-11T13:30:26.208Z,27.53
2023-08-11T13:33:09.435Z,27.34
2023-08-11T13:35:49.775Z,27.15
2023-08-11T13:38:29.829Z,26.71
2023-08-11T13:41:10.808Z,26.60
2023-08-11T13:43:50.495Z,26.75
2023-08-11T13:46:30.428Z,26.68
2023-08-11T13:49:08.352Z,26.60
2023-08-11T13:51:48.120Z,26.57
2023-08-11T13:54:29.011Z,26.61
2023-08-11T13:57:11.524Z,26.67
2023-08-11T13:59:52.565Z,26.69
2023-08-11T14:02:32.903Z,26.79
2023-08-11T14:05:15.505Z,26.65
2023-08-11T14:07:57.318Z,26.39
2023-08-11T14:10:37.599Z,26.29
2023-08-11T14:13:17.679Z,26.23
2023-08-11T14:15:57.897Z,26.33
2023-08-11T14:18:40.765Z,26.50
2023-08-11T14:21:20.152Z,26.64
2023-08-11T14:23:57.847Z,26.78
2023-08-11T14:26:36.614Z,26.93
2023-08-11T14:29:16.149Z,27.04
2023-08-11T14:31:56.375Z,27.12
2023-08-11T14:34:38.147Z,27.06
2023-08-11T14:37:18.226Z,26.97
2023-08-11T14:39:58.504Z,26.99
2023-08-11T14:42:35.411Z,27.00
2023-08-11T14:45:15.608Z,26.87
2023-08-11T14:47:52.428Z,26.87
2023-08-11T14:50:32.506Z,26.85
2023-08-11T14:53:13.920Z,26.79
2023-08-11T14:55:54.429Z,26.92
2023-08-11T14:58:39.076Z,27.01
2023-08-11T15:01:20.369Z,26.88
2023-08-11T15:03:59.045Z,26.93
2023-08-11T15:06:38.136Z,26.81
2023-08-11T15:09:18.283Z,26.69
2023-08-11T15:11:57.564Z,26.50
2023-08-11T15:14:36.467Z,26.42
2023-08-11T15:17:15.935Z,26.33
2023-08-11T15:19:55.006Z,26.11
2023-08-11T15:22:34.184Z,25.90
2023-08-11T15:25:14.127Z,25.70
2023-08-11T15:27:54.930Z,25.60
2023-08-11T15:30:25.555Z,25.63
2023-08-11T15:33:04.564Z,25.56
2023-08-11T15:35:44.306Z,25.58
2023-08-11T15:38:23.418Z,25.61
2023-08-11T15:40:54.121Z,25.65
2023-08-11T15:43:24.707Z,25.63
2023-08-11T15:46:02.111Z,25.59
2023-08-11T15:48:43.853Z,25.54
2023-08-11T15:51:21.358Z,25.44
2023-08-11T15:54:01.074Z,25.36
2023-08-11T15:56:40.953Z,25.17
2023-08-11T15:59:21.035Z,25.09
2023-08-11T16:02:09.934Z,25.14
2023-08-11T16:04:41.938Z,25.18
2023-08-11T16:07:21.678Z,25.16
2023-08-11T16:10:01.397Z,25.12
2023-08-11T16:12:40.765Z,25.04
2023-08-11T16:15:20.793Z,24.97
2023-08-11T16:18:01.602Z,25.03
2023-08-11T16:20:41.693Z,25.04
2023-08-11T16:23:22.110Z,25.06
2023-08-11T16:26:01.641Z,25.04
2023-08-11T16:28:41.713Z,24.98
2023-08-11T16:31:21.949Z,24.91
2023-08-11T16:34:02.093Z,24.84
2023-08-11T16:36:40.773Z,24.85
2023-08-11T16:39:20.517Z,24.77
2023-08-11T16:41:59.756Z,24.71
2023-08-11T16:44:38.906Z,24.64
2023-08-11T16:47:18.765Z,24.54
2023-08-11T16:49:57.920Z,24.48
2023-08-11T16:52:37.778Z,24.42
2023-08-11T16:55:17.885Z,24.27
2023-08-11T16:57:58.152Z,24.22
2023-08-11T17:00:38.252Z,24.15
2023-08-11T17:03:18.293Z,24.07
2023-08-11T17:05:58.271Z,24.04
2023-08-11T17:08:39.070Z,24.00
2023-08-11T17:11:19.422Z,23.93
2023-08-11T17:13:59.180Z,23.91
2023-08-11T17:16:39.725Z,23.86
2023-08-11T17:19:17.046Z,23.78
2023-08-11T17:21:58.578Z,23.70
2023-08-11T17:24:38.895Z,23.62
2023-08-11T17:27:15.898Z,23.59
2023-08-11T17:29:56.044Z,23.51
2023-08-11T17:32:33.483Z,23.49
2023-08-11T17:35:15.272Z,23.39
2023-08-11T17:37:47.908Z,23.31
2023-08-11T17:40:28.570Z,23.27
2023-08-11T17:43:11.916Z,23.22
2023-08-11T17:45:52.413Z,23.14
2023-08-11T17:48:32.807Z,23.06
2023-08-11T17:51:14.577Z,22.99
2023-08-11T17:54:08.210Z,22.90
2023-08-11T17:56:45.336Z,22.81
2023-08-11T17:59:24.901Z,22.78
2023-08-11T18:01:55.382Z,22.72
2023-08-11T18:04:29.950Z,22.65
2023-08-11T18:07:11.228Z,22.58
2023-08-11T18:09:52.753Z,22.49
2023-08-11T18:12:24.228Z,22.40
2023-08-11T18:15:08.571Z,22.32
2023-08-11T18:17:52.097Z,22.26
2023-08-11T18:20:26.048Z,22.18
2023-08-11T18:23:06.627Z,22.09
2023-08-11T18:25:44.185Z,21.98
2023-08-11T18:28:24.487Z,21.91
2023-08-11T18:31:11.140Z,21.83
2023-08-11T18:33:51.845Z,21.76
2023-08-11T18:36:32.109Z,21.68
2023-08-11T18:39:15.279Z,21.60
2023-08-11T18:41:55.283Z,21.52
2023-08-11T18:44:35.890Z,21.45
2023-08-11T18:47:15.977Z,21.38
2023-08-11T18:49:56.353Z,21.28
2023-08-11T18:52:37.085Z,21.20
2023-08-11T18:55:17.554Z,21.12
2023-08-11T18:57:55.371Z,21.07
2023-08-11T19:00:35.451Z,20.97
2023-08-11T19:03:16.528Z,20.90
2023-08-11T19:06:00.588Z,20.84
2023-08-11T19:08:38.965Z,20.78
2023-08-11T19:11:23.797Z,20.71
2023-08-11T19:14:04.769Z,20.63
2023-08-11T19:16:47.134Z,20.55
2023-08-11T19:19:27.292Z,20.50
2023-08-11T19:22:07.344Z,20.42
2023-08-11T19:24:47.473Z,20.36
2023-08-11T19:27:28.744Z,20.30
2023-08-11T19:30:08.282Z,20.23
2023-08-11T19:32:47.557Z,20.16
2023-08-11T19:35:27.685Z,20.10
2023-08-11T19:38:07.884Z,20.05
2023-08-11T19:40:51.112Z,19.93
2023-08-11T19:43:28.294Z,19.87
2023-08-11T19:46:08.242Z,19.86
2023-08-11T19:48:46.767Z,19.78
2023-08-11T19:51:31.124Z,19.68
2023-08-11T19:54:10.150Z,19.63
2023-08-11T19:56:50.836Z,19.57
2023-08-11T19:59:28.590Z,19.51
2023-08-11T20:02:08.729Z,19.45
2023-08-11T20:04:48.710Z,19.41
2023-08-11T20:07:25.289Z,19.32
2023-08-11T20:10:05.565Z,19.27
2023-08-11T20:12:46.186Z,19.21
2023-08-11T20:15:26.574Z,19.16
2023-08-11T20:18:07.686Z,19.08
2023-08-11T20:20:49.652Z,19.02
2023-08-11T20:23:29.382Z,18.96
2023-08-11T20:26:09.369Z,18.91
2023-08-11T20:28:43.180Z,18.83
2023-08-11T20:31:21.152Z,18.78
2023-08-11T20:34:03.207Z,18.72
2023-08-11T20:36:44.119Z,18.66
2023-08-11T20:39:26.729Z,18.61
2023-08-11T20:42:08.474Z,18.56
2023-08-11T20:44:52.023Z,18.51
2023-08-11T20:47:30.175Z,18.46
2023-08-11T20:50:08.940Z,18.41
2023-08-11T20:52:49.036Z,18.38
2023-08-11T20:55:30.434Z,18.33
2023-08-11T20:58:10.441Z,18.28
2023-08-11T21:00:50.624Z,18.24
2023-08-11T21:03:30.846Z,18.19
2023-08-11T21:06:11.420Z,18.15
2023-08-11T21:08:54.084Z,18.10
2023-08-11T21:11:31.323Z,18.03
2023-08-11T21:14:12.005Z,17.99
2023-08-11T21:16:51.757Z,17.96
2023-08-11T21:19:23.279Z,17.93
2023-08-11T21:22:03.705Z,17.90
2023-08-11T21:24:41.313Z,17.85
2023-08-11T21:27:21.992Z,17.78
2023-08-11T21:30:00.050Z,17.74
2023-08-11T21:32:41.198Z,17.70
2023-08-11T21:35:23.397Z,17.67
2023-08-11T21:38:06.232Z,17.62
2023-08-11T21:40:47.565Z,17.58
2023-08-11T21:43:28.055Z,17.54
2023-08-11T21:46:09.568Z,17.47
2023-08-11T21:48:49.877Z,17.39
2023-08-11T21:51:31.328Z,17.37
2023-08-11T21:54:12.361Z,17.33
2023-08-11T21:56:52.622Z,17.28
2023-08-11T21:59:32.792Z,17.24
2023-08-11T22:02:12.816Z,17.20
2023-08-11T22:04:52.806Z,17.17
2023-08-11T22:07:32.927Z,17.15
2023-08-11T22:10:13.027Z,17.11
2023-08-11T22:12:52.844Z,17.07
2023-08-11T22:15:33.052Z,17.03
2023-08-11T22:18:13.178Z,17.00
2023-08-11T22:20:53.567Z,16.96
2023-08-11T22:23:33.434Z,16.94
2023-08-11T22:26:13.626Z,16.92
2023-08-11T22:28:45.050Z,16.90
2023-08-11T22:31:16.026Z,16.87
2023-08-11T22:33:57.797Z,16.78
2023-08-11T22:36:37.575Z,16.77
2023-08-11T22:39:17.890Z,16.73
2023-08-11T22:41:57.329Z,16.71
2023-08-11T22:44:37.602Z,16.69
2023-08-11T22:47:17.632Z,16.66
2023-08-11T22:49:57.044Z,16.62
2023-08-11T22:52:37.407Z,16.56
2023-08-11T22:55:17.310Z,16.52
2023-08-11T22:57:57.537Z,16.48
2023-08-11T23:00:37.064Z,16.46
2023-08-11T23:03:17.983Z,16.42
2023-08-11T23:05:54.751Z,16.37
2023-08-11T23:08:34.731Z,16.32
2023-08-11T23:11:15.352Z,16.30
2023-08-11T23:13:55.093Z,16.28
2023-08-11T23:16:34.929Z,16.26
2023-08-11T23:19:16.237Z,16.22
2023-08-11T23:21:53.557Z,16.19
2023-08-11T23:24:34.394Z,16.18
2023-08-11T23:27:18.520Z,16.16
2023-08-11T23:29:49.154Z,16.18
2023-08-11T23:32:33.828Z,16.22
2023-08-11T23:35:16.147Z,16.27
2023-08-11T23:37:55.585Z,16.30
2023-08-11T23:40:36.303Z,16.27
2023-08-11T23:43:13.914Z,16.26
2023-08-11T23:45:49.986Z,16.22
2023-08-11T23:48:30.921Z,16.18
2023-08-11T23:51:07.960Z,16.14
2023-08-11T23:53:47.801Z,16.09
2023-08-11T23:56:27.200Z,16.05
2023-08-11T23:59:08.044Z,16.00
